Time;durP1;ratioP1;P1;durP2;ratioP2;P2;SDS_P1;SDS_P2;PMS_P1;PMS_P2;Temp;Humidity;BMP_temperature;BMP_pressure;BME280_temperature;BME280_humidity;BME280_pressure;Samples;Min_cycle;Max_cycle;Signal;HPM_P1;HPM_P2
2022/06/03 00:00:25;;;;;;;4.43;0.95;;;11.60;99.90;;;;;;5055510;28;20127;-71
2022/06/03 00:03:11;;;;;;;1.42;0.85;;;11.60;99.90;;;;;;5062666;28;20041;-71
2022/06/03 00:06:21;;;;;;;2.38;1.17;;;11.60;99.90;;;;;;5069505;28;20838;-71
2022/06/03 00:09:02;;;;;;;3.58;1.02;;;11.60;99.90;;;;;;5068107;28;20048;-71
2022/06/03 00:12:10;;;;;;;3.45;1.05;;;11.50;99.90;;;;;;5037130;28;20089;-71
2022/06/03 00:14:36;;;;;;;2.42;1.20;;;11.50;99.90;;;;;;5055904;28;20040;-71
2022/06/03 00:17:20;;;;;;;1.17;0.70;;;11.50;99.90;;;;;;5070494;28;20044;-71
2022/06/03 00:19:52;;;;;;;2.97;1.10;;;11.50;99.90;;;;;;5066235;28;20040;-71
2022/06/03 00:23:03;;;;;;;1.70;0.82;;;11.50;99.90;;;;;;5071112;28;20090;-71
2022/06/03 00:25:31;;;;;;;1.52;0.73;;;11.50;99.90;;;;;;5079494;28;20417;-71
2022/06/03 00:28:05;;;;;;;1.75;0.80;;;11.40;99.90;;;;;;5063896;28;20032;-71
2022/06/03 00:31:11;;;;;;;4.47;1.25;;;11.30;99.90;;;;;;5069667;28;20032;-71
2022/06/03 00:34:01;;;;;;;5.20;1.10;;;11.30;99.90;;;;;;5070670;28;20057;-71
2022/06/03 00:36:54;;;;;;;3.25;1.00;;;11.20;99.90;;;;;;5058049;28;20197;-71
2022/06/03 00:39:32;;;;;;;1.80;0.90;;;11.20;99.90;;;;;;5082610;28;20115;-71
2022/06/03 00:42:37;;;;;;;4.00;1.15;;;11.20;99.90;;;;;;5053902;28;20394;-71
2022/06/03 00:45:36;;;;;;;8.40;1.23;;;11.20;99.90;;;;;;5078771;28;20386;-71
2022/06/03 00:48:31;;;;;;;2.20;1.13;;;11.20;99.90;;;;;;5057359;28;20413;-71
2022/06/03 00:51:23;;;;;;;2.28;1.25;;;11.10;99.90;;;;;;5066046;28;20061;-71
2022/06/03 00:54:19;;;;;;;1.80;1.00;;;11.10;99.90;;;;;;5051964;28;20040;-71
2022/06/03 00:56:57;;;;;;;;;;;11.10;99.90;;;;;;5062934;28;20052;-71
2022/06/03 00:59:48;;;;;;;2.67;1.10;;;11.00;99.90;;;;;;5057990;28;19916;-71
2022/06/03 01:02:45;;;;;;;2.38;1.15;;;11.00;99.90;;;;;;5071212;28;20040;-71
2022/06/03 01:05:42;;;;;;;2.05;0.82;;;11.00;99.90;;;;;;5057909;28;20280;-71
2022/06/03 01:08:38;;;;;;;4.65;1.35;;;11.00;99.90;;;;;;5069387;28;20517;-71
2022/06/03 01:11:37;;;;;;;2.10;1.17;;;11.00;99.90;;;;;;5054685;28;20041;-71
2022/06/03 01:14:19;;;;;;;2.05;1.08;;;10.90;99.90;;;;;;5054186;28;20044;-71
2022/06/03 01:17:08;;;;;;;2.45;1.38;;;11.00;99.90;;;;;;5050479;28;20036;-71
2022/06/03 01:19:37;;;;;;;2.22;1.23;;;10.90;99.90;;;;;;5045130;28;20127;-71
2022/06/03 01:22:14;;;;;;;1.67;0.73;;;10.90;99.90;;;;;;5067238;28;20040;-71
2022/06/03 01:25:10;;;;;;;1.38;0.80;;;10.90;99.90;;;;;;5051046;28;20039;-71
2022/06/03 01:28:07;;;;;;;2.67;1.00;;;10.80;99.90;;;;;;5055238;28;20040;-71
2022/06/03 01:30:42;;;;;;;2.35;1.10;;;10.80;99.90;;;;;;5061752;28;20036;-71
2022/06/03 01:33:16;;;;;;;2.47;1.20;;;10.80;99.90;;;;;;5059881;28;20083;-71
2022/06/03 01:35:57;;;;;;;1.58;0.85;;;10.80;99.90;;;;;;5055463;28;20470;-71
2022/06/03 01:38:41;;;;;;;3.78;1.50;;;10.80;99.90;;;;;;5051833;28;20036;-71
2022/06/03 01:41:25;;;;;;;3.10;1.38;;;10.70;99.90;;;;;;5070249;28;20051;-71
2022/06/03 01:44:17;;;;;;;2.25;1.20;;;10.70;99.90;;;;;;5050202;28;20037;-71
2022/06/03 01:47:20;;;;;;;1.33;0.90;;;10.70;99.90;;;;;;5055664;28;20035;-71
2022/06/03 01:50:07;;;;;;;2.97;0.90;;;10.70;99.90;;;;;;5068873;28;20044;-71
2022/06/03 01:52:42;;;;;;;3.10;1.02;;;10.70;99.90;;;;;;5049624;28;20102;-71
2022/06/03 01:55:29;;;;;;;1.88;1.17;;;10.60;99.90;;;;;;5054797;28;20037;-71
2022/06/03 01:58:09;;;;;;;2.40;1.10;;;10.60;99.90;;;;;;5050298;28;20115;-71
2022/06/03 02:01:15;;;;;;;1.52;0.90;;;10.60;99.90;;;;;;5055111;28;20116;-71
2022/06/03 02:04:07;;;;;;;2.85;1.10;;;10.60;99.90;;;;;;5055874;28;20036;-71
2022/06/03 02:07:09;;;;;;;1.58;0.80;;;10.50;99.90;;;;;;5058963;28;20119;-71
2022/06/03 02:09:50;;;;;;;2.40;1.17;;;10.50;99.90;;;;;;5064332;28;20028;-71
2022/06/03 02:12:42;;;;;;;2.70;1.10;;;10.50;99.90;;;;;;5081078;28;20040;-71
2022/06/03 02:15:13;;;;;;;2.28;1.33;;;10.50;99.90;;;;;;5058066;28;20052;-71
2022/06/03 02:18:02;;;;;;;2.03;1.17;;;10.50;99.90;;;;;;5045954;28;20166;-71
2022/06/03 02:20:56;;;;;;;1.60;1.02;;;10.50;99.90;;;;;;5074597;28;20082;-71
2022/06/03 02:23:37;;;;;;;3.00;1.45;;;10.50;99.90;;;;;;5068804;28;20056;-71
2022/06/03 02:26:09;;;;;;;2.25;1.23;;;10.50;99.90;;;;;;5067286;28;20220;-71
2022/06/03 02:28:50;;;;;;;1.25;0.93;;;10.50;99.90;;;;;;5052054;28;20082;-71
2022/06/03 02:31:51;;;;;;;2.20;0.93;;;10.50;99.90;;;;;;5054261;28;20046;-71
2022/06/03 02:34:33;;;;;;;2.17;1.15;;;10.50;99.90;;;;;;5066351;28;20067;-71
2022/06/03 02:37:33;;;;;;;2.92;1.25;;;10.50;99.90;;;;;;5067380;28;20422;-71
2022/06/03 02:40:25;;;;;;;2.45;1.27;;;10.50;99.90;;;;;;5041870;28;20082;-71
2022/06/03 02:43:08;;;;;;;3.00;1.58;;;10.50;99.90;;;;;;5059139;28;20087;-71
2022/06/03 02:45:49;;;;;;;2.63;0.98;;;10.50;99.90;;;;;;5061517;28;20040;-71
2022/06/03 02:48:33;;;;;;;2.80;1.20;;;10.50;99.90;;;;;;5069393;28;20036;-71
2022/06/03 02:51:12;;;;;;;2.40;1.30;;;10.50;99.90;;;;;;5063322;28;20043;-71
2022/06/03 02:54:08;;;;;;;2.50;1.13;;;10.50;99.90;;;;;;5066579;28;20145;-71
2022/06/03 02:56:47;;;;;;;1.85;1.10;;;10.50;99.90;;;;;;5052266;28;20032;-71
2022/06/03 02:59:40;;;;;;;2.13;1.10;;;10.40;99.90;;;;;;5050021;28;20032;-71
2022/06/03 03:02:41;;;;;;;4.03;1.35;;;10.40;99.90;;;;;;5064486;28;20048;-71
2022/06/03 03:05:34;;;;;;;5.05;1.40;;;10.40;99.90;;;;;;5050033;28;20241;-71
2022/06/03 03:08:27;;;;;;;2.28;1.27;;;10.40;99.90;;;;;;5068013;28;20168;-71
2022/06/03 03:11:17;;;;;;;2.50;1.33;;;10.40;99.90;;;;;;5051978;28;20044;-71
2022/06/03 03:14:05;;;;;;;3.53;1.25;;;10.40;99.90;;;;;;5052784;28;20036;-71
2022/06/03 03:16:39;;;;;;;3.03;1.70;;;10.40;99.90;;;;;;5080248;28;20047;-71
2022/06/03 03:19:23;;;;;;;1.67;0.85;;;10.30;99.90;;;;;;5040645;28;20104;-71
2022/06/03 03:21:52;;;;;;;2.65;1.40;;;10.40;99.90;;;;;;5058081;28;20383;-71
2022/06/03 03:24:21;;;;;;;3.95;1.65;;;10.40;99.90;;;;;;5069531;28;20528;-71
2022/06/03 03:26:55;;;;;;;2.92;1.70;;;10.40;99.90;;;;;;5055105;28;20047;-71
2022/06/03 03:29:33;;;;;;;2.92;1.67;;;10.30;99.90;;;;;;5052628;28;20055;-71
2022/06/03 03:32:03;;;;;;;2.13;1.20;;;10.30;99.90;;;;;;5084630;28;20046;-71
2022/06/03 03:34:54;;;;;;;3.67;1.67;;;10.30;99.90;;;;;;5055646;28;20456;-71
2022/06/03 03:37:33;;;;;;;3.25;1.88;;;10.30;99.90;;;;;;5060558;28;20115;-71
2022/06/03 03:40:36;;;;;;;2.80;1.45;;;10.30;99.90;;;;;;5058669;28;20518;-71
2022/06/03 03:43:14;;;;;;;2.80;1.55;;;10.30;99.90;;;;;;5060311;28;20070;-71
2022/06/03 03:46:15;;;;;;;2.50;1.25;;;10.30;99.90;;;;;;5069810;28;20513;-71
2022/06/03 03:49:09;;;;;;;4.68;1.52;;;10.30;99.90;;;;;;5043901;28;20058;-71
2022/06/03 03:52:05;;;;;;;2.30;1.33;;;10.30;99.90;;;;;;5070490;28;20406;-71
2022/06/03 03:54:49;;;;;;;2.35;1.20;;;10.40;99.90;;;;;;5063296;28;20123;-71
2022/06/03 03:57:40;;;;;;;2.55;1.27;;;10.40;99.90;;;;;;5043054;28;20036;-71
2022/06/03 04:00:06;;;;;;;2.97;1.67;;;10.40;99.90;;;;;;5048430;28;20051;-71
2022/06/03 04:03:22;;;;;;;3.67;1.70;;;10.40;99.90;;;;;;5073030;28;20036;-71
2022/06/03 04:05:59;;;;;;;5.80;1.23;;;10.40;99.90;;;;;;5056387;28;20036;-71
2022/06/03 04:08:57;;;;;;;4.05;1.80;;;10.50;99.90;;;;;;5068896;28;20044;-71
2022/06/03 04:12:01;;;;;;;5.45;1.30;;;10.50;99.90;;;;;;5063094;28;20036;-71
2022/06/03 04:14:48;;;;;;;2.58;1.50;;;10.50;99.90;;;;;;5060249;28;20051;-71
2022/06/03 04:17:46;;;;;;;3.42;1.83;;;10.60;99.90;;;;;;5073083;28;20440;-71
2022/06/03 04:20:37;;;;;;;4.60;1.50;;;10.60;99.90;;;;;;5067050;28;20085;-71
2022/06/03 04:23:14;;;;;;;3.25;1.63;;;10.70;99.90;;;;;;5053680;28;20032;-70
2022/06/03 04:26:37;;;;;;;5.45;1.52;;;10.70;99.90;;;;;;5047575;28;20085;-70
2022/06/03 04:29:37;;;;;;;7.05;1.95;;;10.80;99.90;;;;;;4994743;28;20073;-71
2022/06/03 04:32:38;;;;;;;2.75;1.25;;;10.80;99.90;;;;;;5009479;28;20124;-71
2022/06/03 04:35:49;;;;;;;3.05;1.45;;;10.80;99.90;;;;;;5034021;28;20568;-70
2022/06/03 04:38:32;;;;;;;2.88;1.50;;;10.80;99.90;;;;;;5038267;28;20078;-71
2022/06/03 04:41:17;;;;;;;6.65;1.77;;;10.80;99.90;;;;;;5064949;28;20505;-71
2022/06/03 04:44:18;;;;;;;2.95;1.42;;;10.90;99.90;;;;;;5053847;28;20047;-71
2022/06/03 04:47:04;;;;;;;3.55;1.67;;;10.90;99.90;;;;;;5059070;28;20041;-71
2022/06/03 04:50:11;;;;;;;2.95;1.65;;;10.90;99.90;;;;;;5056619;28;20040;-71
2022/06/03 04:53:06;;;;;;;4.10;1.92;;;11.00;99.90;;;;;;5052166;28;20044;-70
2022/06/03 04:55:37;;;;;;;2.28;1.23;;;11.00;99.90;;;;;;5033090;28;20517;-71
2022/06/03 04:58:41;;;;;;;2.63;1.58;;;11.00;99.90;;;;;;5051829;28;20044;-71
2022/06/03 05:01:32;;;;;;;2.78;1.58;;;11.00;99.90;;;;;;5059618;28;20050;-71
2022/06/03 05:04:16;;;;;;;2.97;1.63;;;11.10;99.90;;;;;;5056934;28;20413;-70
2022/06/03 05:07:09;;;;;;;3.72;1.67;;;11.10;99.90;;;;;;5070865;28;20564;-71
2022/06/03 05:09:38;;;;;;;2.38;1.52;;;11.10;99.90;;;;;;5061698;28;20040;-70
2022/06/03 05:12:22;;;;;;;2.50;1.55;;;11.10;99.90;;;;;;5051583;28;20120;-71
2022/06/03 05:15:19;;;;;;;2.95;1.75;;;11.10;99.90;;;;;;5060868;28;20131;-71
2022/06/03 05:18:09;;;;;;;4.00;1.73;;;11.10;99.90;;;;;;5086230;28;20064;-71
2022/06/03 05:20:35;;;;;;;4.70;1.52;;;11.20;99.90;;;;;;5067138;28;20052;-70
2022/06/03 05:23:22;;;;;;;3.50;1.60;;;11.20;99.90;;;;;;5063749;28;20032;-70
2022/06/03 05:25:56;;;;;;;3.40;1.55;;;11.20;99.90;;;;;;5051505;28;20055;-70
2022/06/03 05:28:31;;;;;;;4.25;1.42;;;11.30;99.90;;;;;;5046224;28;20132;-70
2022/06/03 05:31:34;;;;;;;2.88;1.40;;;11.20;99.90;;;;;;5066281;28;20040;-70
2022/06/03 05:34:06;;;;;;;3.35;1.45;;;11.30;99.90;;;;;;5056626;28;20055;-70
2022/06/03 05:37:00;;;;;;;5.35;1.55;;;11.30;99.90;;;;;;5066355;28;20098;-71
2022/06/03 05:39:56;;;;;;;3.42;1.85;;;11.40;99.90;;;;;;5056562;28;20051;-70
2022/06/03 05:42:52;;;;;;;5.68;2.00;;;11.40;99.90;;;;;;5061317;28;20052;-70
2022/06/03 05:45:36;;;;;;;2.78;1.45;;;11.40;99.90;;;;;;5036412;28;20044;-70
2022/06/03 05:48:49;;;;;;;3.38;1.88;;;11.40;99.90;;;;;;5053825;28;20535;-70
2022/06/03 05:51:45;;;;;;;3.00;1.30;;;11.50;99.90;;;;;;5033187;28;20048;-71
2022/06/03 05:54:15;;;;;;;4.22;1.60;;;11.60;99.90;;;;;;5060962;28;20038;-70
2022/06/03 05:56:45;;;;;;;4.43;2.10;;;11.60;99.90;;;;;;5063839;28;20036;-70
2022/06/03 05:59:53;;;;;;;3.30;1.60;;;11.60;99.90;;;;;;5052596;28;20098;-71
2022/06/03 06:02:28;;;;;;;3.10;1.50;;;11.60;99.90;;;;;;5050392;28;20135;-70
2022/06/03 06:05:07;;;;;;;3.70;1.42;;;11.70;99.90;;;;;;5068942;28;20035;-70
2022/06/03 06:07:38;;;;;;;3.00;1.58;;;11.70;99.90;;;;;;5072801;28;20037;-71
2022/06/03 06:10:45;;;;;;;2.42;1.30;;;11.80;99.90;;;;;;5052953;28;20043;-71
2022/06/03 06:13:22;;;;;;;;;;;11.90;99.90;;;;;;4973138;28;20042;-71
2022/06/03 06:16:08;;;;;;;2.28;1.02;;;12.00;99.90;;;;;;5046719;28;19924;-71
2022/06/03 06:19:10;;;;;;;2.58;1.52;;;12.40;99.90;;;;;;5063022;28;20039;-71
2022/06/03 06:21:53;;;;;;;1.60;1.05;;;12.60;99.90;;;;;;5054429;28;20040;-71
2022/06/03 06:24:34;;;;;;;4.40;1.33;;;12.60;99.90;;;;;;5050793;28;20074;-71
2022/06/03 06:27:28;;;;;;;1.55;0.93;;;12.60;99.90;;;;;;5059857;28;20032;-71
2022/06/03 06:30:09;;;;;;;2.60;1.20;;;13.10;99.90;;;;;;5061458;28;20040;-70
2022/06/03 06:32:59;;;;;;;1.58;1.00;;;14.40;99.90;;;;;;5058827;28;20806;-71
2022/06/03 06:36:02;;;;;;;2.08;0.95;;;15.90;99.90;;;;;;5056481;28;20229;-71
2022/06/03 06:38:34;;;;;;;2.17;0.88;;;17.20;97.70;;;;;;5040102;28;20036;-71
2022/06/03 06:41:21;;;;;;;2.80;1.17;;;18.20;99.30;;;;;;5051232;28;20055;-71
2022/06/03 06:43:56;;;;;;;2.53;0.98;;;18.90;96.60;;;;;;5057335;28;20044;-71
2022/06/03 06:46:47;;;;;;;2.10;1.13;;;19.60;96.50;;;;;;5043639;28;20033;-71
2022/06/03 06:49:25;;;;;;;1.75;0.90;;;20.20;92.80;;;;;;5056349;28;20063;-70
2022/06/03 06:52:25;;;;;;;1.67;0.98;;;20.00;92.30;;;;;;5063659;28;20044;-71
2022/06/03 06:55:15;;;;;;;2.38;0.75;;;19.40;92.20;;;;;;5083584;28;20509;-70
2022/06/03 06:57:50;;;;;;;0.70;0.47;;;18.60;94.70;;;;;;5050573;28;20044;-71
2022/06/03 07:00:24;;;;;;;1.92;0.70;;;18.00;96.30;;;;;;5057687;28;20048;-71
2022/06/03 07:03:21;;;;;;;2.85;0.95;;;17.40;99.90;;;;;;5080222;28;20043;-71
2022/06/03 07:06:06;;;;;;;1.67;0.80;;;16.90;99.90;;;;;;5051398;28;20072;-70
2022/06/03 07:08:50;;;;;;;2.53;1.00;;;16.50;99.90;;;;;;5062044;28;20044;-71
2022/06/03 07:11:30;;;;;;;2.92;0.85;;;16.10;99.90;;;;;;5048854;28;20048;-71
2022/06/03 07:14:03;;;;;;;1.75;0.80;;;15.90;99.90;;;;;;5057869;28;20039;-71
2022/06/03 07:20:05;;;;;;;1.40;0.80;;;15.50;99.90;;;;;;5062635;28;20040;-70
2022/06/03 07:22:55;;;;;;;1.70;0.82;;;15.40;99.90;;;;;;5063797;28;20047;-70
2022/06/03 07:25:39;;;;;;;1.73;0.98;;;15.40;99.90;;;;;;5065106;28;20044;-71
2022/06/03 07:28:29;;;;;;;1.92;0.95;;;15.20;99.90;;;;;;5061935;28;20530;-70
2022/06/03 07:31:00;;;;;;;1.77;1.00;;;15.20;99.90;;;;;;5060885;28;20050;-71
2022/06/03 07:33:29;;;;;;;2.03;0.98;;;15.10;99.90;;;;;;5058769;28;20059;-70
2022/06/03 07:35:57;;;;;;;1.88;1.10;;;15.20;99.90;;;;;;5060123;28;20194;-70
2022/06/03 07:38:39;;;;;;;1.98;0.85;;;15.10;99.90;;;;;;5046877;28;20040;-71
2022/06/03 07:41:14;;;;;;;5.85;1.13;;;15.00;99.90;;;;;;5040969;28;20032;-70
2022/06/03 07:43:47;;;;;;;;;;;15.00;99.90;;;;;;5059446;28;20063;-71
2022/06/03 07:46:34;;;;;;;1.85;1.10;;;15.00;99.90;;;;;;5072225;28;19958;-70
2022/06/03 07:49:04;;;;;;;2.63;1.50;;;15.00;99.90;;;;;;5042343;28;20086;-70
2022/06/03 07:51:37;;;;;;;2.55;1.27;;;15.00;99.90;;;;;;5056347;28;20066;-70
2022/06/03 07:54:12;;;;;;;2.17;1.02;;;15.00;99.90;;;;;;5062459;28;20042;-70
2022/06/03 07:56:39;;;;;;;2.30;1.13;;;15.00;99.90;;;;;;5058317;28;20040;-70
2022/06/03 07:59:12;;;;;;;3.97;1.40;;;15.10;99.90;;;;;;5062103;28;20036;-70
2022/06/03 08:01:42;;;;;;;2.28;1.20;;;15.10;99.90;;;;;;5081864;28;20062;-70
2022/06/03 08:04:12;;;;;;;2.60;1.20;;;15.10;99.90;;;;;;5066275;28;20035;-70
2022/06/03 08:12:11;;;;;;;2.83;1.23;;;15.20;99.90;;;;;;5058236;28;20090;-70
2022/06/03 08:14:36;;;;;;;2.60;1.40;;;15.20;99.90;;;;;;5054638;28;20651;-71
2022/06/03 08:17:08;;;;;;;3.17;1.45;;;15.30;99.90;;;;;;5056577;28;20170;-71
2022/06/03 08:19:37;;;;;;;2.40;1.23;;;15.30;99.90;;;;;;5062045;28;20504;-70
2022/06/03 08:22:08;;;;;;;1.25;0.88;;;15.30;99.90;;;;;;5048936;28;20085;-70
2022/06/03 08:24:38;;;;;;;3.25;1.65;;;15.30;99.90;;;;;;5057842;28;20477;-70
2022/06/03 08:27:09;;;;;;;2.35;1.30;;;15.40;99.90;;;;;;5078823;28;20732;-71
2022/06/03 08:29:37;;;;;;;3.70;1.42;;;15.40;99.90;;;;;;5058095;28;20055;-70
2022/06/03 08:32:08;;;;;;;2.53;1.20;;;15.40;99.90;;;;;;5061922;28;20131;-70
2022/06/03 08:34:42;;;;;;;1.98;1.17;;;15.50;99.90;;;;;;5034519;28;20041;-70
2022/06/03 08:37:13;;;;;;;2.88;1.35;;;15.50;99.90;;;;;;5036997;28;20048;-70
2022/06/03 08:39:40;;;;;;;2.40;1.17;;;15.50;99.90;;;;;;5031510;28;20037;-69
2022/06/03 08:42:27;;;;;;;1.58;1.00;;;15.60;99.90;;;;;;5021371;28;20059;-70
2022/06/03 08:45:01;;;;;;;2.83;1.40;;;15.70;99.90;;;;;;5020185;28;20045;-70
2022/06/03 08:47:51;;;;;;;2.67;1.38;;;15.70;99.90;;;;;;5031706;28;20076;-70
2022/06/03 08:50:52;;;;;;;1.75;1.10;;;15.70;99.90;;;;;;5030032;28;20475;-70
2022/06/03 08:53:43;;;;;;;3.13;1.30;;;15.80;99.90;;;;;;5033771;28;20057;-70
2022/06/03 08:56:22;;;;;;;2.17;1.02;;;15.90;99.90;;;;;;5007057;28;20045;-69
2022/06/03 08:58:56;;;;;;;2.97;1.35;;;15.90;99.90;;;;;;5034278;28;20115;-69
2022/06/03 09:01:43;;;;;;;2.30;1.40;;;15.90;99.90;;;;;;5032797;28;20098;-69
2022/06/03 09:04:21;;;;;;;2.55;1.33;;;16.00;99.90;;;;;;5040574;28;20045;-70
2022/06/03 09:07:23;;;;;;;1.83;1.05;;;16.00;99.90;;;;;;5026919;28;20044;-69
2022/06/03 09:10:14;;;;;;;1.77;1.10;;;16.10;99.90;;;;;;5030547;28;20049;-68
2022/06/03 09:12:55;;;;;;;2.20;1.25;;;16.10;99.90;;;;;;5037553;28;20073;-67
2022/06/03 09:15:25;;;;;;;2.33;1.10;;;16.20;99.90;;;;;;5030173;28;20111;-67
2022/06/03 09:18:05;;;;;;;1.67;1.00;;;16.20;99.90;;;;;;5052300;28;20072;-67
2022/06/03 09:20:44;;;;;;;1.80;1.10;;;16.30;99.90;;;;;;5029403;28;20762;-74
2022/06/03 09:23:15;;;;;;;2.45;1.20;;;16.30;99.30;;;;;;5028334;28;20350;-72
2022/06/03 09:25:50;;;;;;;2.30;1.42;;;16.40;99.90;;;;;;5032738;28;20033;-72
2022/06/03 09:28:25;;;;;;;2.42;1.48;;;16.40;99.90;;;;;;5019516;28;20110;-69
2022/06/03 09:30:51;;;;;;;3.63;1.55;;;16.40;99.90;;;;;;5027574;28;20132;-70
2022/06/03 09:33:21;;;;;;;2.63;1.40;;;16.50;99.90;;;;;;5042606;28;20406;-70
2022/06/03 09:35:51;;;;;;;4.15;1.60;;;16.40;99.90;;;;;;5051613;28;20562;-70
2022/06/03 09:38:21;;;;;;;3.28;1.30;;;16.50;99.90;;;;;;5054573;28;20044;-70
2022/06/03 09:40:48;;;;;;;1.80;1.00;;;16.60;99.80;;;;;;5054173;28;20106;-70
2022/06/03 09:43:25;;;;;;;2.30;1.23;;;16.60;99.90;;;;;;5047883;28;20055;-70
2022/06/03 09:45:53;;;;;;;1.67;1.00;;;16.60;98.90;;;;;;5057436;28;20040;-69
2022/06/03 09:48:22;;;;;;;1.83;1.20;;;16.70;99.90;;;;;;5033532;28;20055;-70
2022/06/03 09:50:50;;;;;;;1.73;1.05;;;16.70;99.40;;;;;;5045950;28;20044;-70
2022/06/03 09:53:21;;;;;;;2.25;1.50;;;16.70;99.70;;;;;;5041282;28;20040;-70
2022/06/03 09:55:56;;;;;;;3.42;1.42;;;16.80;96.40;;;;;;5049005;28;20633;-70
2022/06/03 09:58:27;;;;;;;1.80;1.10;;;16.80;97.00;;;;;;5049136;28;20036;-69
2022/06/03 10:00:55;;;;;;;2.58;1.45;;;16.80;98.40;;;;;;5047805;28;20044;-70
2022/06/03 10:03:21;;;;;;;2.60;1.10;;;16.80;98.90;;;;;;5053306;28;20127;-70
2022/06/03 10:05:50;;;;;;;4.13;1.02;;;16.80;98.60;;;;;;5049485;28;20051;-72
2022/06/03 10:08:20;;;;;;;2.30;1.40;;;16.90;97.00;;;;;;5032625;28;20052;-70
2022/06/03 10:13:51;;;;;;;1.52;0.80;;;16.90;97.80;;;;;;4979821;28;20049;-70
2022/06/03 10:16:17;;;;;;;2.33;1.50;;;16.90;97.90;;;;;;4968653;28;20224;-70
2022/06/03 10:18:49;;;;;;;2.22;1.10;;;17.00;98.00;;;;;;5015384;28;20707;-70
2022/06/03 10:21:14;;;;;;;2.55;1.30;;;17.00;97.30;;;;;;5055784;28;20053;-70
2022/06/03 10:23:44;;;;;;;1.30;0.77;;;17.00;97.60;;;;;;5053662;28;20545;-70
2022/06/03 10:26:19;;;;;;;2.38;1.35;;;17.00;97.40;;;;;;5044629;28;20041;-71
2022/06/03 10:28:50;;;;;;;2.20;1.10;;;17.10;95.90;;;;;;5043461;28;20167;-70
2022/06/03 10:31:18;;;;;;;1.75;1.00;;;17.20;96.30;;;;;;5051446;28;20047;-70
2022/06/03 10:34:00;;;;;;;2.05;1.00;;;17.20;96.70;;;;;;5056212;28;20501;-70
2022/06/03 10:36:37;;;;;;;1.77;0.93;;;17.30;92.10;;;;;;5052254;28;20094;-70
2022/06/03 10:39:04;;;;;;;2.33;1.30;;;17.40;94.70;;;;;;5053616;28;20035;-70
2022/06/03 10:41:39;;;;;;;1.80;1.00;;;17.40;96.70;;;;;;5042967;28;20177;-71
2022/06/03 10:44:10;;;;;;;1.90;1.00;;;17.40;96.10;;;;;;5071813;28;20112;-70
2022/06/03 10:46:36;;;;;;;1.48;0.93;;;17.50;95.50;;;;;;5050787;28;20033;-70
2022/06/03 10:49:11;;;;;;;3.35;1.50;;;17.50;96.30;;;;;;5058172;28;20037;-70
2022/06/03 11:02:43;;;;;;;1.58;1.05;;;17.50;94.90;;;;;;5050473;28;20041;-70
2022/06/03 11:05:26;;;;;;;3.08;1.00;;;17.60;95.40;;;;;;5055559;28;20056;-70
2022/06/03 11:08:02;;;;;;;2.35;1.17;;;17.60;93.70;;;;;;5051527;28;20391;-70
2022/06/03 11:10:37;;;;;;;1.88;1.05;;;17.60;93.80;;;;;;5049750;28;20506;-70
2022/06/03 11:13:05;;;;;;;2.17;1.10;;;17.70;95.30;;;;;;5049854;28;20128;-70
2022/06/03 11:15:37;;;;;;;1.77;0.95;;;17.70;95.40;;;;;;5047225;28;20057;-71
2022/06/03 11:18:35;;;;;;;1.77;1.10;;;17.70;94.00;;;;;;5041861;28;20033;-70
2022/06/03 11:21:24;;;;;;;2.63;1.20;;;17.70;92.50;;;;;;5051433;28;20056;-70
2022/06/03 11:23:56;;;;;;;3.05;1.20;;;17.80;89.00;;;;;;5052959;28;20090;-70
2022/06/03 11:26:30;;;;;;;2.13;1.20;;;17.90;93.50;;;;;;5042862;28;20075;-70
2022/06/03 11:29:07;;;;;;;2.55;0.80;;;17.80;93.60;;;;;;5055270;28;20036;-70
2022/06/03 11:31:41;;;;;;;1.63;0.90;;;17.90;92.30;;;;;;5052525;28;20124;-70
2022/06/03 11:34:23;;;;;;;1.88;1.10;;;17.90;92.20;;;;;;5049022;28;20060;-70
2022/06/03 11:36:55;;;;;;;1.13;0.70;;;17.90;93.20;;;;;;5054300;28;20127;-70
2022/06/03 11:39:38;;;;;;;2.45;1.17;;;18.00;93.10;;;;;;5054444;28;20040;-70
2022/06/03 11:42:11;;;;;;;1.95;1.20;;;18.00;93.50;;;;;;5057528;28;20040;-70
2022/06/03 11:45:00;;;;;;;1.90;0.80;;;18.00;89.50;;;;;;5046080;28;20098;-71
2022/06/03 11:47:36;;;;;;;2.22;1.05;;;18.00;92.30;;;;;;5049322;28;20059;-70
2022/06/03 11:50:04;;;;;;;2.28;0.90;;;17.90;91.70;;;;;;5058693;28;20502;-70
2022/06/03 11:52:30;;;;;;;2.25;1.17;;;17.90;92.90;;;;;;5057480;28;20068;-70
2022/06/03 11:54:55;;;;;;;2.78;0.82;;;17.90;92.70;;;;;;5056649;28;20178;-70
2022/06/03 11:57:22;;;;;;;1.98;1.13;;;18.00;92.80;;;;;;5057459;28;20033;-70
2022/06/03 11:59:54;;;;;;;1.27;0.80;;;18.10;92.10;;;;;;5055844;28;20086;-70
2022/06/03 12:02:36;;;;;;;2.22;1.00;;;18.10;91.50;;;;;;5044434;28;20048;-70
2022/06/03 12:05:05;;;;;;;1.33;0.80;;;18.10;92.40;;;;;;5058388;28;20127;-70
2022/06/03 12:07:54;;;;;;;2.70;1.38;;;18.20;92.50;;;;;;5073518;28;20037;-70
2022/06/03 12:10:41;;;;;;;1.98;0.85;;;18.20;90.90;;;;;;5062418;28;20051;-70
2022/06/03 12:13:21;;;;;;;2.50;1.00;;;18.20;87.60;;;;;;5059789;28;20044;-70
2022/06/03 12:15:52;;;;;;;2.10;0.93;;;18.30;88.70;;;;;;5063162;28;20044;-71
2022/06/03 12:18:34;;;;;;;1.95;0.98;;;18.30;92.00;;;;;;5054766;28;20029;-71
2022/06/03 12:21:10;;;;;;;1.30;0.82;;;18.40;91.50;;;;;;5057548;28;20757;-70
2022/06/03 12:23:36;;;;;;;1.15;0.70;;;18.50;82.60;;;;;;5061314;28;20029;-71
2022/06/03 12:26:26;;;;;;;1.33;0.70;;;18.50;90.80;;;;;;5054538;28;20378;-70
2022/06/03 12:29:12;;;;;;;2.58;1.02;;;18.40;89.50;;;;;;5055094;28;20480;-70
2022/06/03 12:31:42;;;;;;;;;;;18.40;88.90;;;;;;5060711;28;20048;-70
2022/06/03 12:34:20;;;;;;;1.55;1.00;;;18.50;78.20;;;;;;5055480;28;19916;-70
2022/06/03 12:36:51;;;;;;;1.48;0.75;;;18.50;90.00;;;;;;5056107;28;20636;-70
2022/06/03 12:39:21;;;;;;;2.70;0.93;;;18.50;90.90;;;;;;5059147;28;20056;-70
2022/06/03 12:41:47;;;;;;;1.13;0.70;;;18.50;90.30;;;;;;5054323;28;20052;-70
2022/06/03 12:44:43;;;;;;;1.00;0.70;;;18.60;90.40;;;;;;5037535;28;20044;-70
2022/06/03 12:47:29;;;;;;;2.03;0.90;;;18.60;84.30;;;;;;5059978;28;20097;-70
2022/06/03 12:49:57;;;;;;;1.30;0.73;;;18.60;77.60;;;;;;5049860;28;20082;-71
2022/06/03 12:52:26;;;;;;;1.08;0.68;;;18.60;87.00;;;;;;5057920;28;20040;-70
2022/06/03 12:54:56;;;;;;;1.23;0.65;;;18.50;86.40;;;;;;5057116;28;20525;-71
2022/06/03 12:57:31;;;;;;;1.70;1.08;;;18.60;83.10;;;;;;5080420;28;20154;-71
2022/06/03 13:00:15;;;;;;;1.10;0.60;;;18.60;86.70;;;;;;5059644;28;20043;-70
2022/06/03 13:03:04;;;;;;;0.68;0.50;;;18.60;87.60;;;;;;5056368;28;20482;-70
2022/06/03 13:05:38;;;;;;;0.93;0.50;;;18.70;77.50;;;;;;5034543;28;20176;-70
2022/06/03 13:08:05;;;;;;;1.55;0.80;;;18.70;85.10;;;;;;5051971;28;20106;-70
2022/06/03 13:10:52;;;;;;;0.82;0.45;;;18.70;87.40;;;;;;5058773;28;20093;-70
2022/06/03 13:13:28;;;;;;;2.13;0.90;;;18.70;85.90;;;;;;5007809;28;20169;-70
2022/06/03 13:16:14;;;;;;;2.47;0.80;;;18.70;80.90;;;;;;5051118;28;20137;-70
2022/06/03 13:18:43;;;;;;;1.15;0.65;;;18.80;86.70;;;;;;5055562;28;20043;-71
2022/06/03 13:21:08;;;;;;;0.88;0.50;;;18.70;86.40;;;;;;5043950;28;20525;-71
2022/06/03 13:23:44;;;;;;;2.30;0.70;;;18.70;87.30;;;;;;5040073;28;20037;-70
2022/06/03 13:26:22;;;;;;;2.33;0.57;;;18.80;87.00;;;;;;5058049;28;20047;-71
2022/06/03 13:28:51;;;;;;;0.90;0.60;;;18.80;76.60;;;;;;5057100;28;20044;-70
2022/06/03 13:31:26;;;;;;;3.55;0.82;;;18.80;86.50;;;;;;5058196;28;20037;-70
2022/06/03 13:34:12;;;;;;;;;;;18.90;80.40;;;;;;5053314;28;20051;-71
2022/06/03 13:36:41;;;;;;;2.63;0.67;;;18.80;67.80;;;;;;5057863;28;20035;-70
2022/06/03 13:39:10;;;;;;;1.00;0.68;;;18.80;84.30;;;;;;5053050;28;20315;-70
2022/06/03 13:44:47;;;;;;;1.48;0.70;;;18.80;84.30;;;;;;5054263;28;20036;-70
2022/06/03 13:47:20;;;;;;;1.83;0.82;;;18.90;79.20;;;;;;5073223;28;20162;-70
2022/06/03 13:49:57;;;;;;;1.10;0.68;;;18.90;77.50;;;;;;5053481;28;20053;-70
2022/06/03 13:52:33;;;;;;;1.73;0.85;;;18.90;81.60;;;;;;5051787;28;20036;-70
2022/06/03 13:55:33;;;;;;;1.77;0.93;;;18.90;78.20;;;;;;5051986;28;20080;-72
2022/06/03 13:58:06;;;;;;;1.25;0.60;;;18.90;69.20;;;;;;5010341;28;20071;-71
2022/06/03 14:00:51;;;;;;;1.25;0.50;;;19.00;79.20;;;;;;5048389;28;20162;-72
2022/06/03 14:03:31;;;;;;;0.85;0.50;;;19.00;78.30;;;;;;5042333;28;20032;-70
2022/06/03 14:06:03;;;;;;;0.75;0.40;;;19.00;73.90;;;;;;5041656;28;20065;-70
2022/06/03 14:08:43;;;;;;;0.77;0.55;;;19.00;80.10;;;;;;5035957;28;20533;-70
2022/06/03 14:11:16;;;;;;;0.73;0.47;;;19.00;74.60;;;;;;5060739;28;20045;-70
2022/06/03 14:14:11;;;;;;;1.92;0.90;;;19.00;78.60;;;;;;5049316;28;20037;-70
2022/06/03 14:16:50;;;;;;;1.02;0.60;;;19.00;71.60;;;;;;5052046;28;20132;-70
2022/06/03 14:19:45;;;;;;;2.22;0.65;;;19.00;77.90;;;;;;5056277;28;20458;-70
2022/06/03 14:22:34;;;;;;;1.95;0.80;;;19.00;72.70;;;;;;5059893;28;20036;-70
2022/06/03 14:25:24;;;;;;;1.20;0.50;;;19.10;75.20;;;;;;5037449;28;20037;-70
2022/06/03 14:28:01;;;;;;;1.50;0.75;;;19.10;76.30;;;;;;5052657;28;20465;-70